<?xml version='1.0' encoding='UTF-8'?><gpx version="1.1" creator="JPX - https://github.com/jenetics/jpx" xmlns="http://www.topografix.com/GPX/1/1"><trk><trkseg><trkpt lat="44.386094878916374" lon="11.938688426173432"><ele>16.999999999999996</ele><time>2026-03-25T14:35:01.972Z</time></trkpt><trkpt lat="44.386063202740495" lon="11.938781404594826"><ele>17.0</ele><time>2026-03-25T14:35:05.972Z</time></trkpt><trkpt lat="44.38601346905099" lon="11.93885607440893"><ele>17.0</ele><time>2026-03-25T14:35:09.972Z</time></trkpt><trkpt lat="44.38598543617103" lon="11.938935045295262"><ele>17.0</ele><time>2026-03-25T14:35:13.971Z</time></trkpt><trkpt lat="44.38592958298809" lon="11.938998740384765"><ele>17.0</ele><time>2026-03-25T14:35:17.971Z</time></trkpt><trkpt lat="44.385881246487145" lon="11.939083769118763"><ele>16.999999999999996</ele><time>2026-03-25T14:35:20.971Z</time></trkpt><trkpt lat="44.38581745234221" lon="11.93905014401481"><ele>17.0</ele><time>2026-03-25T14:35:22.971Z</time></trkpt><trkpt lat="44.385758033477764" lon="11.939012753124107"><ele>17.0</ele><time>2026-03-25T14:35:25.971Z</time></trkpt><trkpt lat="44.3856874658479" lon="11.938986289567108"><ele>17.0</ele><time>2026-03-25T14:35:28.971Z</time></trkpt><trkpt lat="44.38561718939703" lon="11.938942128586206"><ele>17.0</ele><time>2026-03-25T14:35:32.971Z</time></trkpt><trkpt lat="44.385550732925616" lon="11.938877188101957"><ele>17.0</ele><time>2026-03-25T14:35:36.971Z</time></trkpt><trkpt lat="44.38548698395356" lon="11.938826154512281"><ele>17.0</ele><time>2026-03-25T14:35:39.971Z</time></trkpt><trkpt lat="44.385422569925396" lon="11.938776559913103"><ele>17.0</ele><time>2026-03-25T14:35:42.971Z</time></trkpt><trkpt lat="44.38535667937741" lon="11.938725790601314"><ele>16.999999999999996</ele><time>2026-03-25T14:35:45.971Z</time></trkpt><trkpt lat="44.38529350781689" lon="11.938680441098256"><ele>17.0</ele><time>2026-03-25T14:35:48.971Z</time></trkpt><trkpt lat="44.3852481593234" lon="11.93861329462467"><ele>17.0</ele><time>2026-03-25T14:35:51.971Z</time></trkpt><trkpt lat="44.385193280454644" lon="11.938533513467705"><ele>17.0</ele><time>2026-03-25T14:35:55.971Z</time></trkpt><trkpt lat="44.385127081193" lon="11.938494218245692"><ele>17.0</ele><time>2026-03-25T14:35:58.971Z</time></trkpt><trkpt lat="44.38506594403536" lon="11.938435751163668"><ele>16.999999999999996</ele><time>2026-03-25T14:36:01.971Z</time></trkpt><trkpt lat="44.38501128461245" lon="11.938363076202837"><ele>17.0</ele><time>2026-03-25T14:36:05.971Z</time></trkpt><trkpt lat="44.38494888247287" lon="11.938312686019797"><ele>16.666666666666668</ele><time>2026-03-25T14:36:08.971Z</time></trkpt><trkpt lat="44.38488965293345" lon="11.93824808358138"><ele>16.333333333333336</ele><time>2026-03-25T14:36:12.971Z</time></trkpt><trkpt lat="44.384812647684655" lon="11.938186949865106"><ele>16.0</ele><time>2026-03-25T14:36:16.971Z</time></trkpt><trkpt lat="44.38473699194728" lon="11.938113449986021"><ele>15.666666666666668</ele><time>2026-03-25T14:36:20.971Z</time></trkpt><trkpt lat="44.38465636185377" lon="11.938061375733126"><ele>15.333333333333334</ele><time>2026-03-25T14:36:24.971Z</time></trkpt><trkpt lat="44.38459071781635" lon="11.938012543710343"><ele>15.0</ele><time>2026-03-25T14:36:27.971Z</time></trkpt><trkpt lat="44.38451832485491" lon="11.937980418811609"><ele>15.714285714285715</ele><time>2026-03-25T14:36:30.971Z</time></trkpt><trkpt lat="44.38445717334681" lon="11.937932470222501"><ele>16.428571428571427</ele><time>2026-03-25T14:36:33.971Z</time></trkpt><trkpt lat="44.38439744160227" lon="11.937879375064577"><ele>17.142857142857142</ele><time>2026-03-25T14:36:36.971Z</time></trkpt><trkpt lat="44.3843397868803" lon="11.93782649230453"><ele>17.857142857142858</ele><time>2026-03-25T14:36:39.971Z</time></trkpt><trkpt lat="44.38428323862276" lon="11.93777159596333"><ele>18.571428571428573</ele><time>2026-03-25T14:36:42.971Z</time></trkpt><trkpt lat="44.38422961141888" lon="11.937718551686611"><ele>19.285714285714285</ele><time>2026-03-25T14:36:45.97Z</time></trkpt><trkpt lat="44.38416514323659" lon="11.937678902355854"><ele>20.0</ele><time>2026-03-25T14:36:48.97Z</time></trkpt><trkpt lat="44.384110578604414" lon="11.937631375123289"><ele>20.0</ele><time>2026-03-25T14:36:51.97Z</time></trkpt><trkpt lat="44.38405116664239" lon="11.937588189534429"><ele>20.0</ele><time>2026-03-25T14:36:54.97Z</time></trkpt><trkpt lat="44.383998749402544" lon="11.937522800125151"><ele>20.0</ele><time>2026-03-25T14:36:57.97Z</time></trkpt><trkpt lat="44.38393546669462" lon="11.93747598833444"><ele>20.0</ele><time>2026-03-25T14:37:00.97Z</time></trkpt><trkpt lat="44.38387526981711" lon="11.937440712976922"><ele>20.0</ele><time>2026-03-25T14:37:03.97Z</time></trkpt><trkpt lat="44.38380336476429" lon="11.937388437209504"><ele>20.0</ele><time>2026-03-25T14:37:07.97Z</time></trkpt><trkpt lat="44.383727485416244" lon="11.937328827684388"><ele>20.0</ele><time>2026-03-25T14:37:11.97Z</time></trkpt><trkpt lat="44.38364572377663" lon="11.9372872728221"><ele>19.857142857142858</ele><time>2026-03-25T14:37:15.97Z</time></trkpt><trkpt lat="44.383573702348684" lon="11.937227074385795"><ele>19.714285714285715</ele><time>2026-03-25T14:37:19.97Z</time></trkpt><trkpt lat="44.383518417291576" lon="11.937179113918388"><ele>19.57142857142857</ele><time>2026-03-25T14:37:22.97Z</time></trkpt><trkpt lat="44.3834616450771" lon="11.937130398846302"><ele>19.42857142857143</ele><time>2026-03-25T14:37:25.97Z</time></trkpt><trkpt lat="44.38339421358034" lon="11.937084458962229"><ele>19.28571428571429</ele><time>2026-03-25T14:37:29.97Z</time></trkpt><trkpt lat="44.38332952826957" lon="11.93704782029447"><ele>19.142857142857142</ele><time>2026-03-25T14:37:32.97Z</time></trkpt><trkpt lat="44.383272374909446" lon="11.937007531383916"><ele>19.0</ele><time>2026-03-25T14:37:35.97Z</time></trkpt><trkpt lat="44.38319196857919" lon="11.936964060279458"><ele>19.0</ele><time>2026-03-25T14:37:39.97Z</time></trkpt><trkpt lat="44.383129186397575" lon="11.936923061340087"><ele>19.0</ele><time>2026-03-25T14:37:42.97Z</time></trkpt><trkpt lat="44.38306666480119" lon="11.936910447919226"><ele>19.0</ele><time>2026-03-25T14:37:45.97Z</time></trkpt><trkpt lat="44.38299543830412" lon="11.936915644092629"><ele>19.0</ele><time>2026-03-25T14:37:48.97Z</time></trkpt><trkpt lat="44.38292840402973" lon="11.936943278769455"><ele>19.0</ele><time>2026-03-25T14:37:51.97Z</time></trkpt><trkpt lat="44.38287376493478" lon="11.93699193219341"><ele>19.0</ele><time>2026-03-25T14:37:54.97Z</time></trkpt><trkpt lat="44.382796405942685" lon="11.93696162855647"><ele>19.0</ele><time>2026-03-25T14:37:58.97Z</time></trkpt><trkpt lat="44.38274089698349" lon="11.936905119079995"><ele>18.71428571428571</ele><time>2026-03-25T14:38:01.97Z</time></trkpt><trkpt lat="44.38267808466221" lon="11.936851675941629"><ele>18.42857142857143</ele><time>2026-03-25T14:38:04.97Z</time></trkpt><trkpt lat="44.38262645037472" lon="11.936799572366766"><ele>18.142857142857142</ele><time>2026-03-25T14:38:07.97Z</time></trkpt><trkpt lat="44.3825689813813" lon="11.93675041278322"><ele>17.857142857142854</ele><time>2026-03-25T14:38:10.97Z</time></trkpt><trkpt lat="44.382511511149936" lon="11.936699017866145"><ele>17.57142857142857</ele><time>2026-03-25T14:38:13.97Z</time></trkpt><trkpt lat="44.382457851216174" lon="11.93664215527962"><ele>17.285714285714285</ele><time>2026-03-25T14:38:16.97Z</time></trkpt><trkpt lat="44.382391502317205" lon="11.93658199376819"><ele>17.0</ele><time>2026-03-25T14:38:20.97Z</time></trkpt><trkpt lat="44.38232590613096" lon="11.936530497068576"><ele>16.999999999999996</ele><time>2026-03-25T14:38:23.97Z</time></trkpt><trkpt lat="44.382272869837735" lon="11.936470236178378"><ele>17.0</ele><time>2026-03-25T14:38:26.97Z</time></trkpt><trkpt lat="44.38221426202025" lon="11.936430573802278"><ele>17.0</ele><time>2026-03-25T14:38:29.97Z</time></trkpt><trkpt lat="44.382154207038" lon="11.936379349711498"><ele>17.0</ele><time>2026-03-25T14:38:32.97Z</time></trkpt><trkpt lat="44.382092927395824" lon="11.936341202816852"><ele>17.0</ele><time>2026-03-25T14:38:35.97Z</time></trkpt><trkpt lat="44.38202362444779" lon="11.936305740541352"><ele>16.999999999999996</ele><time>2026-03-25T14:38:39.971Z</time></trkpt><trkpt lat="44.381970130893556" lon="11.936251973122197"><ele>17.0</ele><time>2026-03-25T14:38:42.972Z</time></trkpt><trkpt lat="44.381913550913794" lon="11.936202160476165"><ele>16.857142857142854</ele><time>2026-03-25T14:38:45.971Z</time></trkpt><trkpt lat="44.381933987657284" lon="11.936086612466939"><ele>16.714285714285715</ele><time>2026-03-25T14:38:50.971Z</time></trkpt><trkpt lat="44.38196695324027" lon="11.936009340028471"><ele>16.57142857142857</ele><time>2026-03-25T14:38:53.971Z</time></trkpt><trkpt lat="44.3819749727537" lon="11.935913742610083"><ele>16.428571428571427</ele><time>2026-03-25T14:38:56.971Z</time></trkpt><trkpt lat="44.38203139983078" lon="11.93586131836963"><ele>16.285714285714285</ele><time>2026-03-25T14:38:59.971Z</time></trkpt><trkpt lat="44.3820683861653" lon="11.935767871819936"><ele>16.142857142857142</ele><time>2026-03-25T14:39:02.971Z</time></trkpt><trkpt lat="44.38212798878874" lon="11.935679349997622"><ele>16.0</ele><time>2026-03-25T14:39:06.971Z</time></trkpt><trkpt lat="44.38215011785744" lon="11.935563975363847"><ele>15.999999999999998</ele><time>2026-03-25T14:39:10.971Z</time></trkpt><trkpt lat="44.38213642384521" lon="11.935463077519811"><ele>16.0</ele><time>2026-03-25T14:39:13.971Z</time></trkpt><trkpt lat="44.38216398829423" lon="11.935365279402829"><ele>16.0</ele><time>2026-03-25T14:39:16.971Z</time></trkpt><trkpt lat="44.38219683235763" lon="11.935276873137445"><ele>16.0</ele><time>2026-03-25T14:39:19.971Z</time></trkpt><trkpt lat="44.38223330386101" lon="11.935187551931104"><ele>15.999999999999998</ele><time>2026-03-25T14:39:22.971Z</time></trkpt><trkpt lat="44.38227455826435" lon="11.935094653927214"><ele>16.0</ele><time>2026-03-25T14:39:25.971Z</time></trkpt><trkpt lat="44.38232629651444" lon="11.935012005033329"><ele>16.285714285714285</ele><time>2026-03-25T14:39:28.971Z</time></trkpt><trkpt lat="44.38236859626911" lon="11.93493992841915"><ele>16.57142857142857</ele><time>2026-03-25T14:39:31.971Z</time></trkpt><trkpt lat="44.382414234446536" lon="11.934857213892943"><ele>16.857142857142858</ele><time>2026-03-25T14:39:34.971Z</time></trkpt><trkpt lat="44.382456008452984" lon="11.934768809926345"><ele>17.142857142857142</ele><time>2026-03-25T14:39:37.971Z</time></trkpt><trkpt lat="44.38249495729924" lon="11.93469703585448"><ele>17.42857142857143</ele><time>2026-03-25T14:39:40.971Z</time></trkpt><trkpt lat="44.38252356001948" lon="11.934610281897424"><ele>17.714285714285715</ele><time>2026-03-25T14:39:43.971Z</time></trkpt><trkpt lat="44.38257346286619" lon="11.934533373085218"><ele>18.0</ele><time>2026-03-25T14:39:46.971Z</time></trkpt><trkpt lat="44.382618076480945" lon="11.934448409436564"><ele>18.000000000000004</ele><time>2026-03-25T14:39:49.971Z</time></trkpt><trkpt lat="44.38266912641621" lon="11.934372577618845"><ele>18.0</ele><time>2026-03-25T14:39:52.971Z</time></trkpt><trkpt lat="44.382701129664184" lon="11.934289477175026"><ele>18.0</ele><time>2026-03-25T14:39:55.971Z</time></trkpt><trkpt lat="44.38274762403741" lon="11.93420805696304"><ele>18.0</ele><time>2026-03-25T14:39:58.971Z</time></trkpt><trkpt lat="44.38277983935344" lon="11.9341240809736"><ele>18.0</ele><time>2026-03-25T14:40:01.971Z</time></trkpt><trkpt lat="44.382827286216646" lon="11.934045610046931"><ele>18.000000000000004</ele><time>2026-03-25T14:40:04.971Z</time></trkpt><trkpt lat="44.38284212681641" lon="11.93395322188971"><ele>18.0</ele><time>2026-03-25T14:40:07.971Z</time></trkpt><trkpt lat="44.3828831388667" lon="11.933882261906662"><ele>17.714285714285715</ele><time>2026-03-25T14:40:10.971Z</time></trkpt><trkpt lat="44.38291191245456" lon="11.933799865142353"><ele>17.42857142857143</ele><time>2026-03-25T14:40:13.971Z</time></trkpt><trkpt lat="44.382922522887895" lon="11.933708036276736"><ele>17.142857142857142</ele><time>2026-03-25T14:40:16.971Z</time></trkpt><trkpt lat="44.38286544591398" lon="11.933668514301077"><ele>16.857142857142858</ele><time>2026-03-25T14:40:18.971Z</time></trkpt><trkpt lat="44.38281105894175" lon="11.933600500818406"><ele>16.57142857142857</ele><time>2026-03-25T14:40:21.971Z</time></trkpt><trkpt lat="44.382751925836324" lon="11.933539467423437"><ele>16.285714285714285</ele><time>2026-03-25T14:40:25.971Z</time></trkpt><trkpt lat="44.38269079871308" lon="11.933499977494222"><ele>16.0</ele><time>2026-03-25T14:40:28.971Z</time></trkpt><trkpt lat="44.38262223726641" lon="11.933433613301235"><ele>16.142857142857142</ele><time>2026-03-25T14:40:32.971Z</time></trkpt><trkpt lat="44.38255010438695" lon="11.933374486347084"><ele>16.285714285714285</ele><time>2026-03-25T14:40:35.971Z</time></trkpt><trkpt lat="44.38248321916415" lon="11.93333319228198"><ele>16.428571428571427</ele><time>2026-03-25T14:40:38.971Z</time></trkpt><trkpt lat="44.382425292807525" lon="11.9332961229084"><ele>16.57142857142857</ele><time>2026-03-25T14:40:41.971Z</time></trkpt><trkpt lat="44.38236332420904" lon="11.933261267481807"><ele>16.714285714285715</ele><time>2026-03-25T14:40:44.971Z</time></trkpt><trkpt lat="44.38230591592077" lon="11.933222005156065"><ele>16.857142857142854</ele><time>2026-03-25T14:40:47.972Z</time></trkpt><trkpt lat="44.382241668785305" lon="11.933177058255366"><ele>17.0</ele><time>2026-03-25T14:40:50.972Z</time></trkpt><trkpt lat="44.38218310645041" lon="11.933129056502032"><ele>16.857142857142854</ele><time>2026-03-25T14:40:53.972Z</time></trkpt><trkpt lat="44.38211059167529" lon="11.933111643025057"><ele>16.714285714285715</ele><time>2026-03-25T14:40:56.972Z</time></trkpt><trkpt lat="44.38204674625526" lon="11.933065437926729"><ele>16.57142857142857</ele><time>2026-03-25T14:40:59.971Z</time></trkpt><trkpt lat="44.38197376640677" lon="11.933046322301903"><ele>16.428571428571427</ele><time>2026-03-25T14:41:02.971Z</time></trkpt><trkpt lat="44.38190283305476" lon="11.932984730939406"><ele>16.285714285714285</ele><time>2026-03-25T14:41:06.971Z</time></trkpt><trkpt lat="44.38184673891626" lon="11.93293968178476"><ele>16.142857142857142</ele><time>2026-03-25T14:41:09.971Z</time></trkpt><trkpt lat="44.381778716164376" lon="11.93289769266469"><ele>16.0</ele><time>2026-03-25T14:41:12.971Z</time></trkpt><trkpt lat="44.38170075558227" lon="11.932861570574167"><ele>15.999999999999998</ele><time>2026-03-25T14:41:16.971Z</time></trkpt><trkpt lat="44.38163510378259" lon="11.932825757726798"><ele>16.0</ele><time>2026-03-25T14:41:19.971Z</time></trkpt><trkpt lat="44.38157311514864" lon="11.932767869301667"><ele>16.0</ele><time>2026-03-25T14:41:22.971Z</time></trkpt><trkpt lat="44.38149367861116" lon="11.932704215112865"><ele>16.0</ele><time>2026-03-25T14:41:26.971Z</time></trkpt><trkpt lat="44.381415330917164" lon="11.932656085316573"><ele>15.999999999999998</ele><time>2026-03-25T14:41:30.971Z</time></trkpt><trkpt lat="44.38134680688878" lon="11.932597574292181"><ele>16.0</ele><time>2026-03-25T14:41:34.971Z</time></trkpt><trkpt lat="44.38128829670682" lon="11.932555163387173"><ele>15.999999999999998</ele><time>2026-03-25T14:41:38.971Z</time></trkpt><trkpt lat="44.38121850938878" lon="11.93250090799282"><ele>16.0</ele><time>2026-03-25T14:41:41.971Z</time></trkpt><trkpt lat="44.38122938342124" lon="11.932380486344455"><ele>16.0</ele><time>2026-03-25T14:41:45.971Z</time></trkpt><trkpt lat="44.38127414446566" lon="11.932294067598795"><ele>16.0</ele><time>2026-03-25T14:41:49.971Z</time></trkpt><trkpt lat="44.38129839418322" lon="11.932189900042745"><ele>15.999999999999998</ele><time>2026-03-25T14:41:52.971Z</time></trkpt><trkpt lat="44.381324023115674" lon="11.93210767800506"><ele>16.0</ele><time>2026-03-25T14:41:55.971Z</time></trkpt><trkpt lat="44.38135927263835" lon="11.932025811527286"><ele>16.0</ele><time>2026-03-25T14:41:58.971Z</time></trkpt><trkpt lat="44.38139527362939" lon="11.931944326965677"><ele>15.999999999999998</ele><time>2026-03-25T14:42:01.971Z</time></trkpt><trkpt lat="44.381420677884876" lon="11.931850947028536"><ele>16.0</ele><time>2026-03-25T14:42:04.971Z</time></trkpt><trkpt lat="44.38144049888617" lon="11.931763273429759"><ele>16.0</ele><time>2026-03-25T14:42:07.971Z</time></trkpt><trkpt lat="44.38147595523073" lon="11.931664269545738"><ele>15.999999999999998</ele><time>2026-03-25T14:42:10.971Z</time></trkpt><trkpt lat="44.381519788801675" lon="11.931576210881863"><ele>16.0</ele><time>2026-03-25T14:42:13.971Z</time></trkpt><trkpt lat="44.38156231539859" lon="11.931489010043066"><ele>16.0</ele><time>2026-03-25T14:42:16.971Z</time></trkpt><trkpt lat="44.38158916818162" lon="11.931393494597598"><ele>15.833333333333332</ele><time>2026-03-25T14:42:19.971Z</time></trkpt><trkpt lat="44.381621932113404" lon="11.931318159201524"><ele>15.666666666666666</ele><time>2026-03-25T14:42:21.971Z</time></trkpt><trkpt lat="44.381657430599596" lon="11.93121641747904"><ele>15.5</ele><time>2026-03-25T14:42:24.971Z</time></trkpt><trkpt lat="44.381616298007444" lon="11.931112423733246"><ele>15.333333333333332</ele><time>2026-03-25T14:42:27.971Z</time></trkpt><trkpt lat="44.38161643342499" lon="11.931019436718831"><ele>15.166666666666666</ele><time>2026-03-25T14:42:30.971Z</time></trkpt><trkpt lat="44.38166586291272" lon="11.930933360815825"><ele>15.0</ele><time>2026-03-25T14:42:33.971Z</time></trkpt><trkpt lat="44.38171823317256" lon="11.930841652278877"><ele>15.0</ele><time>2026-03-25T14:42:36.971Z</time></trkpt><trkpt lat="44.38174949958781" lon="11.930740740695773"><ele>15.0</ele><time>2026-03-25T14:42:39.971Z</time></trkpt><trkpt lat="44.38179138762586" lon="11.930635749953685"><ele>15.0</ele><time>2026-03-25T14:42:42.971Z</time></trkpt><trkpt lat="44.38182993277102" lon="11.930541189230086"><ele>15.0</ele><time>2026-03-25T14:42:45.971Z</time></trkpt><trkpt lat="44.38187799295113" lon="11.930461858610293"><ele>15.0</ele><time>2026-03-25T14:42:48.971Z</time></trkpt><trkpt lat="44.38191006933849" lon="11.930367566341307"><ele>15.0</ele><time>2026-03-25T14:42:51.973Z</time></trkpt><trkpt lat="44.38195004442844" lon="11.930273134515582"><ele>15.0</ele><time>2026-03-25T14:42:54.972Z</time></trkpt><trkpt lat="44.38199153385188" lon="11.930188681837818"><ele>15.0</ele><time>2026-03-25T14:42:57.973Z</time></trkpt><trkpt lat="44.382018486343924" lon="11.930097404216005"><ele>15.0</ele><time>2026-03-25T14:43:00.972Z</time></trkpt><trkpt lat="44.38206175925899" lon="11.930020797343058"><ele>15.0</ele><time>2026-03-25T14:43:03.973Z</time></trkpt><trkpt lat="44.382086712050416" lon="11.92992784465848"><ele>15.0</ele><time>2026-03-25T14:43:06.973Z</time></trkpt><trkpt lat="44.38211016864906" lon="11.9298375937154"><ele>15.0</ele><time>2026-03-25T14:43:09.973Z</time></trkpt><trkpt lat="44.38213985072722" lon="11.92974317095485"><ele>15.0</ele><time>2026-03-25T14:43:13.973Z</time></trkpt><trkpt lat="44.38217578167198" lon="11.929652382677942"><ele>15.0</ele><time>2026-03-25T14:43:17.973Z</time></trkpt><trkpt lat="44.38214818526406" lon="11.929562791719313"><ele>15.0</ele><time>2026-03-25T14:43:21.973Z</time></trkpt><trkpt lat="44.38208774361263" lon="11.929512766120515"><ele>15.0</ele><time>2026-03-25T14:43:24.973Z</time></trkpt><trkpt lat="44.38203334066796" lon="11.929456595815966"><ele>15.0</ele><time>2026-03-25T14:43:27.973Z</time></trkpt><trkpt lat="44.38196402582571" lon="11.929397517729765"><ele>15.0</ele><time>2026-03-25T14:43:30.973Z</time></trkpt><trkpt lat="44.38190358074935" lon="11.929343148780912"><ele>15.0</ele><time>2026-03-25T14:43:34.973Z</time></trkpt><trkpt lat="44.381840272437394" lon="11.929299135907991"><ele>15.0</ele><time>2026-03-25T14:43:39.973Z</time></trkpt><trkpt lat="44.38178675829439" lon="11.929243054847325"><ele>15.0</ele><time>2026-03-25T14:43:43.973Z</time></trkpt><trkpt lat="44.38172902924911" lon="11.929205397701914"><ele>15.0</ele><time>2026-03-25T14:43:47.973Z</time></trkpt><trkpt lat="44.38166338467093" lon="11.929152323957007"><ele>15.0</ele><time>2026-03-25T14:43:52.973Z</time></trkpt><trkpt lat="44.3816209939166" lon="11.929086291994215"><ele>15.0</ele><time>2026-03-25T14:43:57.973Z</time></trkpt><trkpt lat="44.38162518891722" lon="11.928995291155392"><ele>15.0</ele><time>2026-03-25T14:44:04.973Z</time></trkpt><trkpt lat="44.38167116050968" lon="11.928920199879572"><ele>15.0</ele><time>2026-03-25T14:44:10.973Z</time></trkpt><trkpt lat="44.38172781258424" lon="11.92884416226628"><ele>15.0</ele><time>2026-03-25T14:44:15.973Z</time></trkpt><trkpt lat="44.38177805795147" lon="11.92877193581255"><ele>15.0</ele><time>2026-03-25T14:44:20.973Z</time></trkpt><trkpt lat="44.3818201585873" lon="11.928687154113414"><ele>15.0</ele><time>2026-03-25T14:44:25.973Z</time></trkpt><trkpt lat="44.38186029774742" lon="11.928618272681867"><ele>15.0</ele><time>2026-03-25T14:44:29.973Z</time></trkpt><trkpt lat="44.38190720475262" lon="11.928537499295594"><ele>15.0</ele><time>2026-03-25T14:44:34.973Z</time></trkpt><trkpt lat="44.38195748498603" lon="11.92846888353721"><ele>15.0</ele><time>2026-03-25T14:44:39.973Z</time></trkpt><trkpt lat="44.38200649043837" lon="11.92840075820736"><ele>15.0</ele><time>2026-03-25T14:44:44.973Z</time></trkpt><trkpt lat="44.38205605731191" lon="11.928330174343523"><ele>15.0</ele><time>2026-03-25T14:44:49.974Z</time></trkpt><trkpt lat="44.3820995181299" lon="11.928250125583032"><ele>14.857142857142858</ele><time>2026-03-25T14:44:54.974Z</time></trkpt><trkpt lat="44.38214392843535" lon="11.92817143241573"><ele>14.714285714285714</ele><time>2026-03-25T14:44:59.974Z</time></trkpt><trkpt lat="44.3821931744284" lon="11.92810065189816"><ele>14.571428571428571</ele><time>2026-03-25T14:45:04.973Z</time></trkpt><trkpt lat="44.3822275225353" lon="11.928005091480298"><ele>14.428571428571429</ele><time>2026-03-25T14:45:09.974Z</time></trkpt><trkpt lat="44.3822677566051" lon="11.927931882358928"><ele>14.285714285714285</ele><time>2026-03-25T14:45:15.974Z</time></trkpt><trkpt lat="44.3822784469994" lon="11.927842517402215"><ele>14.142857142857142</ele><time>2026-03-25T14:45:19.974Z</time></trkpt><trkpt lat="44.38229581452266" lon="11.927751442075246"><ele>14.0</ele><time>2026-03-25T14:45:24.974Z</time></trkpt><trkpt lat="44.38233967521161" lon="11.927739385123154"><ele>14.000000000000002</ele><time>2026-03-25T14:49:03.974Z</time></trkpt><trkpt lat="44.38239282692498" lon="11.927660934300736"><ele>14.0</ele><time>2026-03-25T14:49:06.974Z</time></trkpt><trkpt lat="44.38244435542325" lon="11.927594213955668"><ele>14.0</ele><time>2026-03-25T14:49:09.975Z</time></trkpt><trkpt lat="44.38251528291733" lon="11.92751818734761"><ele>14.0</ele><time>2026-03-25T14:49:13.975Z</time></trkpt><trkpt lat="44.38258985727649" lon="11.92747704494445"><ele>14.000000000000002</ele><time>2026-03-25T14:49:16.975Z</time></trkpt><trkpt lat="44.38266541462906" lon="11.927450879875552"><ele>14.0</ele><time>2026-03-25T14:49:19.975Z</time></trkpt><trkpt lat="44.38272724266016" lon="11.927400330677955"><ele>14.000000000000002</ele><time>2026-03-25T14:49:22.975Z</time></trkpt><trkpt lat="44.382806477931645" lon="11.927358235353976"><ele>14.0</ele><time>2026-03-25T14:49:25.975Z</time></trkpt><trkpt lat="44.382878726676346" lon="11.927322841993801"><ele>14.0</ele><time>2026-03-25T14:49:28.975Z</time></trkpt><trkpt lat="44.38295529598279" lon="11.92729685066101"><ele>14.0</ele><time>2026-03-25T14:49:31.975Z</time></trkpt><trkpt lat="44.38303566168874" lon="11.927266751635445"><ele>14.000000000000002</ele><time>2026-03-25T14:49:35.975Z</time></trkpt><trkpt lat="44.38311588768747" lon="11.927287502402667"><ele>14.0</ele><time>2026-03-25T14:49:38.975Z</time></trkpt><trkpt lat="44.38317356701616" lon="11.927367354861145"><ele>14.000000000000002</ele><time>2026-03-25T14:49:41.975Z</time></trkpt><trkpt lat="44.383228987597285" lon="11.927443157204904"><ele>14.0</ele><time>2026-03-25T14:49:44.975Z</time></trkpt><trkpt lat="44.38327638382057" lon="11.927514715688568"><ele>14.0</ele><time>2026-03-25T14:49:47.975Z</time></trkpt><trkpt lat="44.38332428306579" lon="11.927603124063623"><ele>14.0</ele><time>2026-03-25T14:49:50.975Z</time></trkpt><trkpt lat="44.38336988238831" lon="11.927693338612997"><ele>14.000000000000002</ele><time>2026-03-25T14:49:53.975Z</time></trkpt><trkpt lat="44.383422891554225" lon="11.92776676838317"><ele>14.0</ele><time>2026-03-25T14:49:56.975Z</time></trkpt><trkpt lat="44.383463898425944" lon="11.9278464640437"><ele>14.0</ele><time>2026-03-25T14:49:59.975Z</time></trkpt><trkpt lat="44.38350631012683" lon="11.927925995104575"><ele>14.0</ele><time>2026-03-25T14:50:02.975Z</time></trkpt><trkpt lat="44.383557646495724" lon="11.928008605348209"><ele>14.0</ele><time>2026-03-25T14:50:05.975Z</time></trkpt><trkpt lat="44.38359525757171" lon="11.928089605269639"><ele>14.0</ele><time>2026-03-25T14:50:08.975Z</time></trkpt><trkpt lat="44.383636427675675" lon="11.928171514389351"><ele>14.0</ele><time>2026-03-25T14:50:11.975Z</time></trkpt><trkpt lat="44.38367195363918" lon="11.928259761654726"><ele>14.0</ele><time>2026-03-25T14:50:14.975Z</time></trkpt><trkpt lat="44.38370794613124" lon="11.928352976923136"><ele>14.0</ele><time>2026-03-25T14:50:17.975Z</time></trkpt><trkpt lat="44.38375539784817" lon="11.928440062137357"><ele>14.0</ele><time>2026-03-25T14:50:20.975Z</time></trkpt><trkpt lat="44.38379576816416" lon="11.928539611052864"><ele>14.0</ele><time>2026-03-25T14:50:23.975Z</time></trkpt><trkpt lat="44.38381686682491" lon="11.928637819462866"><ele>14.0</ele><time>2026-03-25T14:50:26.975Z</time></trkpt><trkpt lat="44.38381883703119" lon="11.928737272901909"><ele>14.0</ele><time>2026-03-25T14:50:29.975Z</time></trkpt><trkpt lat="44.383791478676926" lon="11.928832270453766"><ele>14.0</ele><time>2026-03-25T14:50:32.975Z</time></trkpt><trkpt lat="44.383760587947954" lon="11.92892776088751"><ele>14.0</ele><time>2026-03-25T14:50:35.974Z</time></trkpt><trkpt lat="44.383739535318384" lon="11.929018255934427"><ele>14.0</ele><time>2026-03-25T14:50:38.973Z</time></trkpt><trkpt lat="44.38370738555231" lon="11.929101412741687"><ele>14.0</ele><time>2026-03-25T14:50:41.972Z</time></trkpt><trkpt lat="44.38367696763279" lon="11.929205603331395"><ele>14.0</ele><time>2026-03-25T14:50:45.972Z</time></trkpt><trkpt lat="44.383644243411716" lon="11.929298770461445"><ele>14.0</ele><time>2026-03-25T14:50:50.971Z</time></trkpt><trkpt lat="44.3835955262139" lon="11.929380718275596"><ele>14.0</ele><time>2026-03-25T14:50:53.971Z</time></trkpt><trkpt lat="44.38356729291613" lon="11.929466262367548"><ele>14.0</ele><time>2026-03-25T14:50:56.97Z</time></trkpt><trkpt lat="44.38353333695921" lon="11.929557746205413"><ele>14.0</ele><time>2026-03-25T14:50:59.97Z</time></trkpt><trkpt lat="44.38349247447938" lon="11.929646499533074"><ele>14.0</ele><time>2026-03-25T14:51:04.97Z</time></trkpt><trkpt lat="44.38346267080543" lon="11.929726651756127"><ele>14.142857142857142</ele><time>2026-03-25T14:51:07.97Z</time></trkpt><trkpt lat="44.38343520147869" lon="11.929809518130478"><ele>14.285714285714285</ele><time>2026-03-25T14:51:11.97Z</time></trkpt><trkpt lat="44.38340394706326" lon="11.929889196698895"><ele>14.428571428571429</ele><time>2026-03-25T14:51:15.971Z</time></trkpt><trkpt lat="44.38336419212338" lon="11.929975897204965"><ele>14.571428571428571</ele><time>2026-03-25T14:51:19.97Z</time></trkpt><trkpt lat="44.383336067532944" lon="11.930062896423001"><ele>14.714285714285714</ele><time>2026-03-25T14:51:24.97Z</time></trkpt><trkpt lat="44.383308835130606" lon="11.930145804048529"><ele>14.857142857142858</ele><time>2026-03-25T14:51:29.97Z</time></trkpt><trkpt lat="44.38328033363333" lon="11.930226526338025"><ele>15.0</ele><time>2026-03-25T14:51:33.97Z</time></trkpt><trkpt lat="44.383241438412426" lon="11.930318694876243"><ele>14.857142857142858</ele><time>2026-03-25T14:51:38.97Z</time></trkpt><trkpt lat="44.38318744729725" lon="11.930366808111286"><ele>14.714285714285714</ele><time>2026-03-25T14:51:42.97Z</time></trkpt><trkpt lat="44.38312382355986" lon="11.930335461757403"><ele>14.571428571428571</ele><time>2026-03-25T14:51:46.97Z</time></trkpt><trkpt lat="44.38306472669104" lon="11.930300826735966"><ele>14.428571428571429</ele><time>2026-03-25T14:51:50.97Z</time></trkpt><trkpt lat="44.383012307401145" lon="11.930250310325942"><ele>14.285714285714285</ele><time>2026-03-25T14:51:54.97Z</time></trkpt><trkpt lat="44.382941131419784" lon="11.93019907769827"><ele>14.142857142857142</ele><time>2026-03-25T14:51:59.97Z</time></trkpt><trkpt lat="44.382869336194695" lon="11.930155196822136"><ele>14.0</ele><time>2026-03-25T14:52:04.97Z</time></trkpt><trkpt lat="44.38280198962333" lon="11.930103711874867"><ele>14.142857142857142</ele><time>2026-03-25T14:52:09.97Z</time></trkpt><trkpt lat="44.38273929650544" lon="11.930056602802011"><ele>14.285714285714285</ele><time>2026-03-25T14:52:14.97Z</time></trkpt><trkpt lat="44.382694571037845" lon="11.929993920640007"><ele>14.428571428571429</ele><time>2026-03-25T14:52:18.97Z</time></trkpt><trkpt lat="44.382629391200815" lon="11.929949465416058"><ele>14.571428571428571</ele><time>2026-03-25T14:52:23.97Z</time></trkpt><trkpt lat="44.38257413181196" lon="11.929888651816235"><ele>14.714285714285714</ele><time>2026-03-25T14:52:28.97Z</time></trkpt><trkpt lat="44.38250948929218" lon="11.92984381600859"><ele>14.857142857142858</ele><time>2026-03-25T14:52:33.97Z</time></trkpt><trkpt lat="44.382450780429046" lon="11.929784137583994"><ele>15.0</ele><time>2026-03-25T14:52:38.97Z</time></trkpt><trkpt lat="44.382390764982524" lon="11.92972416090732"><ele>15.0</ele><time>2026-03-25T14:52:43.97Z</time></trkpt><trkpt lat="44.382330021475205" lon="11.929668559368581"><ele>15.0</ele><time>2026-03-25T14:52:48.97Z</time></trkpt><trkpt lat="44.382270106486246" lon="11.929611822214774"><ele>15.0</ele><time>2026-03-25T14:52:53.97Z</time></trkpt><trkpt lat="44.38220770900662" lon="11.929564775098306"><ele>15.0</ele><time>2026-03-25T14:52:58.97Z</time></trkpt><trkpt lat="44.3821428513822" lon="11.929514834969448"><ele>15.0</ele><time>2026-03-25T14:53:03.97Z</time></trkpt><trkpt lat="44.382078722918465" lon="11.929468801668147"><ele>15.0</ele><time>2026-03-25T14:53:08.97Z</time></trkpt><trkpt lat="44.38201778727907" lon="11.929420366219926"><ele>15.0</ele><time>2026-03-25T14:53:13.97Z</time></trkpt><trkpt lat="44.38195515930096" lon="11.929363167146267"><ele>15.0</ele><time>2026-03-25T14:53:18.97Z</time></trkpt><trkpt lat="44.38189296007639" lon="11.929319737003032"><ele>15.0</ele><time>2026-03-25T14:53:23.971Z</time></trkpt><trkpt lat="44.38182861078404" lon="11.92927426367171"><ele>15.0</ele><time>2026-03-25T14:53:28.971Z</time></trkpt><trkpt lat="44.38177248810331" lon="11.929215970586771"><ele>15.0</ele><time>2026-03-25T14:53:33.971Z</time></trkpt><trkpt lat="44.38171862367466" lon="11.929164305421608"><ele>15.0</ele><time>2026-03-25T14:53:38.97Z</time></trkpt><trkpt lat="44.38165866596491" lon="11.929113175019438"><ele>15.0</ele><time>2026-03-25T14:53:43.97Z</time></trkpt><trkpt lat="44.381599563701876" lon="11.929058692126233"><ele>15.0</ele><time>2026-03-25T14:53:48.97Z</time></trkpt><trkpt lat="44.38161096225808" lon="11.928953331184035"><ele>15.0</ele><time>2026-03-25T14:53:54.97Z</time></trkpt><trkpt lat="44.381652270045024" lon="11.928885870497895"><ele>15.0</ele><time>2026-03-25T14:53:58.97Z</time></trkpt><trkpt lat="44.381699804564775" lon="11.928807846396467"><ele>15.0</ele><time>2026-03-25T14:54:03.97Z</time></trkpt><trkpt lat="44.381744187954936" lon="11.928722203992347"><ele>15.0</ele><time>2026-03-25T14:54:08.97Z</time></trkpt><trkpt lat="44.38178982984319" lon="11.928649786793695"><ele>15.0</ele><time>2026-03-25T14:54:13.97Z</time></trkpt><trkpt lat="44.38183736491954" lon="11.928570280043473"><ele>15.0</ele><time>2026-03-25T14:54:18.97Z</time></trkpt><trkpt lat="44.38188221126269" lon="11.928492131562866"><ele>15.0</ele><time>2026-03-25T14:54:23.97Z</time></trkpt><trkpt lat="44.38192849436421" lon="11.92843099893539"><ele>14.857142857142858</ele><time>2026-03-25T14:54:27.97Z</time></trkpt><trkpt lat="44.38198413243167" lon="11.928362052169115"><ele>14.714285714285714</ele><time>2026-03-25T14:54:32.97Z</time></trkpt><trkpt lat="44.38202948112171" lon="11.928298539387795"><ele>14.571428571428571</ele><time>2026-03-25T14:54:40.97Z</time></trkpt><trkpt lat="44.38208114476817" lon="11.928221965275212"><ele>14.428571428571429</ele><time>2026-03-25T14:54:49.97Z</time></trkpt><trkpt lat="44.382118458943516" lon="11.928124001363111"><ele>14.285714285714285</ele><time>2026-03-25T14:54:56.97Z</time></trkpt><trkpt lat="44.38217012642092" lon="11.928054258706505"><ele>14.142857142857142</ele><time>2026-03-25T14:55:01.97Z</time></trkpt><trkpt lat="44.38221994067853" lon="11.927976329900568"><ele>14.0</ele><time>2026-03-25T14:55:06.97Z</time></trkpt><trkpt lat="44.382258047495974" lon="11.927888342208707"><ele>14.0</ele><time>2026-03-25T14:55:11.97Z</time></trkpt><trkpt lat="44.382306521671005" lon="11.927806780605218"><ele>14.0</ele><time>2026-03-25T14:55:16.97Z</time></trkpt><trkpt lat="44.382357277536045" lon="11.927727905139857"><ele>14.0</ele><time>2026-03-25T14:55:21.97Z</time></trkpt><trkpt lat="44.382412387489474" lon="11.927660652864391"><ele>14.0</ele><time>2026-03-25T14:55:26.97Z</time></trkpt><trkpt lat="44.3824797919322" lon="11.927611882644289"><ele>14.0</ele><time>2026-03-25T14:55:31.971Z</time></trkpt><trkpt lat="44.38253993006632" lon="11.927562655391323"><ele>14.0</ele><time>2026-03-25T14:55:36.971Z</time></trkpt><trkpt lat="44.382601882289045" lon="11.927511740583267"><ele>14.0</ele><time>2026-03-25T14:55:41.971Z</time></trkpt><trkpt lat="44.382667143104925" lon="11.927462251421446"><ele>14.0</ele><time>2026-03-25T14:55:46.971Z</time></trkpt><trkpt lat="44.38273243681358" lon="11.927423112390178"><ele>14.0</ele><time>2026-03-25T14:55:51.971Z</time></trkpt><trkpt lat="44.38279654447228" lon="11.92738151567396"><ele>14.0</ele><time>2026-03-25T14:55:56.971Z</time></trkpt><trkpt lat="44.382857077418436" lon="11.927343021076615"><ele>14.0</ele><time>2026-03-25T14:56:01.971Z</time></trkpt><trkpt lat="44.382924874665775" lon="11.927317045258688"><ele>14.0</ele><time>2026-03-25T14:56:06.971Z</time></trkpt><trkpt lat="44.38299289180363" lon="11.927279163914791"><ele>14.0</ele><time>2026-03-25T14:56:11.971Z</time></trkpt><trkpt lat="44.38306574538932" lon="11.927290761898327"><ele>14.0</ele><time>2026-03-25T14:56:16.971Z</time></trkpt><trkpt lat="44.38312246973179" lon="11.92734558689625"><ele>14.0</ele><time>2026-03-25T14:56:21.971Z</time></trkpt><trkpt lat="44.38319176697593" lon="11.927407743265771"><ele>14.0</ele><time>2026-03-25T14:56:27.971Z</time></trkpt><trkpt lat="44.383255782711224" lon="11.927459878564502"><ele>14.0</ele><time>2026-03-25T14:56:32.971Z</time></trkpt><trkpt lat="44.383299560686574" lon="11.927544165117714"><ele>14.0</ele><time>2026-03-25T14:56:37.971Z</time></trkpt><trkpt lat="44.383347858629634" lon="11.927619270734267"><ele>14.0</ele><time>2026-03-25T14:56:42.971Z</time></trkpt><trkpt lat="44.38338570732905" lon="11.927700723116478"><ele>14.0</ele><time>2026-03-25T14:56:47.971Z</time></trkpt><trkpt lat="44.38342318411304" lon="11.92777867933859"><ele>14.0</ele><time>2026-03-25T14:56:52.971Z</time></trkpt><trkpt lat="44.38346448636788" lon="11.927849072587136"><ele>14.0</ele><time>2026-03-25T14:56:57.971Z</time></trkpt><trkpt lat="44.383494846185535" lon="11.927939800798049"><ele>14.0</ele><time>2026-03-25T14:57:03.971Z</time></trkpt><trkpt lat="44.38352805350477" lon="11.928028764998077"><ele>14.0</ele><time>2026-03-25T14:57:08.971Z</time></trkpt><trkpt lat="44.38356164502532" lon="11.928118676797629"><ele>14.0</ele><time>2026-03-25T14:57:14.971Z</time></trkpt><trkpt lat="44.383588317655494" lon="11.928208694914185"><ele>14.0</ele><time>2026-03-25T14:57:20.971Z</time></trkpt><trkpt lat="44.38362367404128" lon="11.928289075307386"><ele>14.0</ele><time>2026-03-25T14:57:25.971Z</time></trkpt><trkpt lat="44.38366972054835" lon="11.928364293458014"><ele>14.0</ele><time>2026-03-25T14:57:30.971Z</time></trkpt><trkpt lat="44.38370341441775" lon="11.928442934243234"><ele>14.0</ele><time>2026-03-25T14:57:35.971Z</time></trkpt><trkpt lat="44.38373836764733" lon="11.928524179101956"><ele>14.0</ele><time>2026-03-25T14:57:40.971Z</time></trkpt><trkpt lat="44.38377019038304" lon="11.928613549389922"><ele>14.0</ele><time>2026-03-25T14:57:46.971Z</time></trkpt><trkpt lat="44.38380221449917" lon="11.928699675186431"><ele>14.0</ele><time>2026-03-25T14:58:03.971Z</time></trkpt><trkpt lat="44.38380759714081" lon="11.928790751700069"><ele>14.0</ele><time>2026-03-25T14:58:09.971Z</time></trkpt><trkpt lat="44.38380331417322" lon="11.928883529249804"><ele>14.0</ele><time>2026-03-25T14:58:17.971Z</time></trkpt><trkpt lat="44.383772173681464" lon="11.928967923014882"><ele>14.0</ele><time>2026-03-25T14:58:23.971Z</time></trkpt><trkpt lat="44.38374212422263" lon="11.929050071149364"><ele>14.0</ele><time>2026-03-25T14:58:31.971Z</time></trkpt><trkpt lat="44.38370771431804" lon="11.929127721584665"><ele>14.0</ele><time>2026-03-25T14:58:37.971Z</time></trkpt><trkpt lat="44.3836741248523" lon="11.929228694952284"><ele>14.0</ele><time>2026-03-25T14:58:43.971Z</time></trkpt><trkpt lat="44.38363818020242" lon="11.929312883039392"><ele>14.0</ele><time>2026-03-25T14:58:49.971Z</time></trkpt><trkpt lat="44.38360489116958" lon="11.929389750175124"><ele>14.0</ele><time>2026-03-25T14:58:54.971Z</time></trkpt><trkpt lat="44.38356688588087" lon="11.9294755100797"><ele>14.0</ele><time>2026-03-25T14:58:59.971Z</time></trkpt><trkpt lat="44.38353563872641" lon="11.929560793297588"><ele>14.0</ele><time>2026-03-25T14:59:05.971Z</time></trkpt><trkpt lat="44.383499631855194" lon="11.929650730253602"><ele>14.142857142857142</ele><time>2026-03-25T14:59:10.971Z</time></trkpt><trkpt lat="44.383460972546686" lon="11.929735128373371"><ele>14.285714285714285</ele><time>2026-03-25T14:59:15.971Z</time></trkpt><trkpt lat="44.38342844540435" lon="11.929820719453573"><ele>14.428571428571429</ele><time>2026-03-25T14:59:21.971Z</time></trkpt><trkpt lat="44.38339809147218" lon="11.92991591301786"><ele>14.571428571428571</ele><time>2026-03-25T14:59:27.971Z</time></trkpt><trkpt lat="44.38336783761657" lon="11.929996708790403"><ele>14.714285714285714</ele><time>2026-03-25T14:59:32.971Z</time></trkpt><trkpt lat="44.38333795251342" lon="11.930080736137727"><ele>14.857142857142858</ele><time>2026-03-25T14:59:37.971Z</time></trkpt><trkpt lat="44.3833083729876" lon="11.930162703406577"><ele>15.0</ele><time>2026-03-25T14:59:42.972Z</time></trkpt><trkpt lat="44.383270325330564" lon="11.930236866899941"><ele>14.857142857142858</ele><time>2026-03-25T14:59:48.972Z</time></trkpt><trkpt lat="44.38323663922211" lon="11.930317126941084"><ele>14.714285714285714</ele><time>2026-03-25T14:59:53.971Z</time></trkpt><trkpt lat="44.383170889863166" lon="11.930336543956642"><ele>14.571428571428571</ele><time>2026-03-25T14:59:58.971Z</time></trkpt><trkpt lat="44.38310686439304" lon="11.93029494789491"><ele>14.428571428571429</ele><time>2026-03-25T15:00:03.971Z</time></trkpt><trkpt lat="44.38304392731437" lon="11.930277459494809"><ele>14.285714285714285</ele><time>2026-03-25T15:00:11.971Z</time></trkpt><trkpt lat="44.382984580527335" lon="11.930231115376797"><ele>14.142857142857142</ele><time>2026-03-25T15:00:18.971Z</time></trkpt><trkpt lat="44.382905402133645" lon="11.930174218176052"><ele>14.0</ele><time>2026-03-25T15:00:21.971Z</time></trkpt><trkpt lat="44.382837333862746" lon="11.93011885780569"><ele>14.0</ele><time>2026-03-25T15:00:25.971Z</time></trkpt><trkpt lat="44.382771184064595" lon="11.93006634526141"><ele>14.0</ele><time>2026-03-25T15:00:30.971Z</time></trkpt><trkpt lat="44.38271181136895" lon="11.930015950420476"><ele>14.0</ele><time>2026-03-25T15:00:36.971Z</time></trkpt><trkpt lat="44.38264962115444" lon="11.929965920483781"><ele>14.0</ele><time>2026-03-25T15:00:41.971Z</time></trkpt><trkpt lat="44.38258191029101" lon="11.929910971792873"><ele>14.0</ele><time>2026-03-25T15:00:46.971Z</time></trkpt><trkpt lat="44.38252304647132" lon="11.929857544629334"><ele>14.0</ele><time>2026-03-25T15:00:50.971Z</time></trkpt><trkpt lat="44.382468246591046" lon="11.929813463432588"><ele>14.0</ele><time>2026-03-25T15:00:54.971Z</time></trkpt><trkpt lat="44.38240453557522" lon="11.929754701511943"><ele>14.166666666666668</ele><time>2026-03-25T15:00:59.971Z</time></trkpt><trkpt lat="44.382337090145604" lon="11.929703201815414"><ele>14.333333333333334</ele><time>2026-03-25T15:01:04.971Z</time></trkpt><trkpt lat="44.38229065224493" lon="11.929617031868803"><ele>14.5</ele><time>2026-03-25T15:01:08.971Z</time></trkpt><trkpt lat="44.38223267153822" lon="11.929561171416497"><ele>14.666666666666668</ele><time>2026-03-25T15:01:11.971Z</time></trkpt><trkpt lat="44.38216905384515" lon="11.92952619680938"><ele>14.833333333333334</ele><time>2026-03-25T15:01:13.971Z</time></trkpt><trkpt lat="44.3820921071247" lon="11.929463293533711"><ele>15.0</ele><time>2026-03-25T15:01:16.971Z</time></trkpt><trkpt lat="44.38202257873774" lon="11.929403362760528"><ele>15.0</ele><time>2026-03-25T15:01:19.971Z</time></trkpt><trkpt lat="44.381952124180806" lon="11.92935229363177"><ele>15.0</ele><time>2026-03-25T15:01:22.971Z</time></trkpt><trkpt lat="44.38188017559553" lon="11.929277875231374"><ele>15.0</ele><time>2026-03-25T15:01:25.971Z</time></trkpt><trkpt lat="44.38181020983352" lon="11.9292158951038"><ele>15.0</ele><time>2026-03-25T15:01:28.971Z</time></trkpt><trkpt lat="44.38174399775852" lon="11.929165071843574"><ele>15.0</ele><time>2026-03-25T15:01:31.971Z</time></trkpt><trkpt lat="44.38168019396126" lon="11.929115186923134"><ele>15.0</ele><time>2026-03-25T15:01:34.971Z</time></trkpt><trkpt lat="44.381683163780885" lon="11.929012826859354"><ele>15.0</ele><time>2026-03-25T15:01:37.971Z</time></trkpt><trkpt lat="44.38172043875204" lon="11.928925305220831"><ele>15.0</ele><time>2026-03-25T15:01:40.971Z</time></trkpt><trkpt lat="44.3817680940189" lon="11.928845309068764"><ele>15.0</ele><time>2026-03-25T15:01:43.971Z</time></trkpt><trkpt lat="44.38180251058804" lon="11.928766683720307"><ele>15.0</ele><time>2026-03-25T15:01:45.972Z</time></trkpt><trkpt lat="44.3818385476276" lon="11.928687281022482"><ele>15.0</ele><time>2026-03-25T15:01:48.973Z</time></trkpt><trkpt lat="44.3818732940684" lon="11.928573413403905"><ele>15.0</ele><time>2026-03-25T15:01:51.973Z</time></trkpt><trkpt lat="44.38192904657833" lon="11.928490444818372"><ele>15.0</ele><time>2026-03-25T15:01:54.972Z</time></trkpt><trkpt lat="44.3819877858201" lon="11.928416002191929"><ele>15.0</ele><time>2026-03-25T15:01:57.973Z</time></trkpt><trkpt lat="44.3820402024528" lon="11.928354259706929"><ele>15.0</ele><time>2026-03-25T15:02:00.973Z</time></trkpt><trkpt lat="44.38209102111969" lon="11.928262555977778"><ele>15.0</ele><time>2026-03-25T15:02:03.973Z</time></trkpt><trkpt lat="44.38214098431435" lon="11.9281501477359"><ele>15.0</ele><time>2026-03-25T15:02:06.973Z</time></trkpt><trkpt lat="44.38219645770743" lon="11.928050038944377"><ele>15.0</ele><time>2026-03-25T15:02:09.973Z</time></trkpt><trkpt lat="44.38225181887642" lon="11.92795817301281"><ele>15.0</ele><time>2026-03-25T15:02:12.973Z</time></trkpt><trkpt lat="44.38229435920699" lon="11.927857515384042"><ele>15.0</ele><time>2026-03-25T15:02:15.973Z</time></trkpt><trkpt lat="44.382346165224035" lon="11.927780552635316"><ele>15.0</ele><time>2026-03-25T15:02:18.973Z</time></trkpt><trkpt lat="44.38240583485138" lon="11.92771155463332"><ele>15.0</ele><time>2026-03-25T15:02:21.973Z</time></trkpt><trkpt lat="44.382472876248656" lon="11.927630488494158"><ele>15.0</ele><time>2026-03-25T15:02:24.973Z</time></trkpt><trkpt lat="44.382523874991506" lon="11.927578657490944"><ele>15.0</ele><time>2026-03-25T15:02:26.973Z</time></trkpt><trkpt lat="44.382605200329934" lon="11.927524785557805"><ele>15.0</ele><time>2026-03-25T15:02:29.973Z</time></trkpt><trkpt lat="44.382683557255454" lon="11.927478468734545"><ele>15.0</ele><time>2026-03-25T15:02:32.973Z</time></trkpt><trkpt lat="44.38276262812759" lon="11.927420600919282"><ele>15.0</ele><time>2026-03-25T15:02:35.973Z</time></trkpt><trkpt lat="44.38282557669689" lon="11.92738501428604"><ele>15.0</ele><time>2026-03-25T15:02:38.973Z</time></trkpt><trkpt lat="44.38289527860214" lon="11.927342554781017"><ele>15.0</ele><time>2026-03-25T15:02:43.973Z</time></trkpt><trkpt lat="44.38296190703843" lon="11.927309645276962"><ele>15.0</ele><time>2026-03-25T15:02:47.973Z</time></trkpt><trkpt lat="44.383023683114466" lon="11.927276118566478"><ele>14.857142857142858</ele><time>2026-03-25T15:02:52.973Z</time></trkpt><trkpt lat="44.38309267419608" lon="11.927273992372127"><ele>14.714285714285714</ele><time>2026-03-25T15:02:56.973Z</time></trkpt><trkpt lat="44.38314318251723" lon="11.927332587933941"><ele>14.571428571428571</ele><time>2026-03-25T15:03:04.973Z</time></trkpt><trkpt lat="44.38319408085823" lon="11.927401348923292"><ele>14.428571428571429</ele><time>2026-03-25T15:03:09.973Z</time></trkpt><trkpt lat="44.383251112762046" lon="11.927470363571034"><ele>14.285714285714285</ele><time>2026-03-25T15:03:14.973Z</time></trkpt><trkpt lat="44.3832954492783" lon="11.927543395437592"><ele>14.142857142857142</ele><time>2026-03-25T15:03:19.973Z</time></trkpt><trkpt lat="44.38334029601615" lon="11.927619806655755"><ele>14.0</ele><time>2026-03-25T15:03:24.973Z</time></trkpt><trkpt lat="44.38339054017698" lon="11.927697432591382"><ele>13.857142857142858</ele><time>2026-03-25T15:03:29.973Z</time></trkpt><trkpt lat="44.38342548579852" lon="11.92777888527741"><ele>13.714285714285715</ele><time>2026-03-25T15:03:34.973Z</time></trkpt><trkpt lat="44.383463836810975" lon="11.92787130917153"><ele>13.571428571428571</ele><time>2026-03-25T15:03:39.973Z</time></trkpt><trkpt lat="44.383492686356185" lon="11.927959766366541"><ele>13.428571428571429</ele><time>2026-03-25T15:03:44.973Z</time></trkpt><trkpt lat="44.383530396499005" lon="11.928059261733694"><ele>13.285714285714286</ele><time>2026-03-25T15:03:50.973Z</time></trkpt><trkpt lat="44.383571890788716" lon="11.92814164994779"><ele>13.142857142857142</ele><time>2026-03-25T15:03:55.973Z</time></trkpt><trkpt lat="44.38361602235853" lon="11.928226647221589"><ele>13.0</ele><time>2026-03-25T15:04:00.973Z</time></trkpt><trkpt lat="44.38366200086672" lon="11.928309468380217"><ele>13.0</ele><time>2026-03-25T15:04:05.973Z</time></trkpt><trkpt lat="44.38369067514216" lon="11.928390848349515"><ele>13.0</ele><time>2026-03-25T15:04:10.973Z</time></trkpt><trkpt lat="44.38372632020221" lon="11.928469013787376"><ele>13.0</ele><time>2026-03-25T15:04:15.973Z</time></trkpt><trkpt lat="44.383768606704855" lon="11.928549050529247"><ele>13.0</ele><time>2026-03-25T15:04:20.973Z</time></trkpt><trkpt lat="44.383801114383196" lon="11.928639757253666"><ele>13.0</ele><time>2026-03-25T15:04:25.973Z</time></trkpt><trkpt lat="44.3838101064936" lon="11.928734341989298"><ele>13.0</ele><time>2026-03-25T15:04:30.973Z</time></trkpt><trkpt lat="44.38381619767933" lon="11.928823070968715"><ele>13.0</ele><time>2026-03-25T15:04:35.973Z</time></trkpt><trkpt lat="44.38379613689559" lon="11.92891240908357"><ele>13.142857142857142</ele><time>2026-03-25T15:04:40.973Z</time></trkpt><trkpt lat="44.38375793679794" lon="11.92899396499459"><ele>13.285714285714286</ele><time>2026-03-25T15:04:45.973Z</time></trkpt><trkpt lat="44.38371144217851" lon="11.929070154232315"><ele>13.428571428571429</ele><time>2026-03-25T15:04:50.973Z</time></trkpt><trkpt lat="44.38367400544125" lon="11.9291464172677"><ele>13.571428571428571</ele><time>2026-03-25T15:04:55.973Z</time></trkpt><trkpt lat="44.38363518563189" lon="11.929229405636468"><ele>13.714285714285715</ele><time>2026-03-25T15:05:00.973Z</time></trkpt><trkpt lat="44.38359750503923" lon="11.929305440564542"><ele>13.857142857142858</ele><time>2026-03-25T15:05:05.973Z</time></trkpt><trkpt lat="44.38355187153276" lon="11.92937740873182"><ele>14.0</ele><time>2026-03-25T15:05:11.973Z</time></trkpt><trkpt lat="44.383531440354794" lon="11.929461801312362"><ele>14.142857142857142</ele><time>2026-03-25T15:05:17.973Z</time></trkpt><trkpt lat="44.38349640259174" lon="11.929545914474417"><ele>14.285714285714285</ele><time>2026-03-25T15:05:23.973Z</time></trkpt><trkpt lat="44.38346289391588" lon="11.929624374918014"><ele>14.428571428571429</ele><time>2026-03-25T15:05:28.973Z</time></trkpt><trkpt lat="44.38342594315151" lon="11.929706565053442"><ele>14.571428571428571</ele><time>2026-03-25T15:05:33.973Z</time></trkpt><trkpt lat="44.383403714532335" lon="11.92979427398616"><ele>14.714285714285714</ele><time>2026-03-25T15:05:38.973Z</time></trkpt><trkpt lat="44.38337094498872" lon="11.929879434865036"><ele>14.857142857142858</ele><time>2026-03-25T15:05:43.973Z</time></trkpt><trkpt lat="44.38333679382353" lon="11.929957539192092"><ele>15.0</ele><time>2026-03-25T15:05:48.973Z</time></trkpt><trkpt lat="44.38329708856035" lon="11.930038986872825"><ele>14.857142857142858</ele><time>2026-03-25T15:05:53.973Z</time></trkpt><trkpt lat="44.38326873866907" lon="11.930130684884785"><ele>14.714285714285714</ele><time>2026-03-25T15:05:59.973Z</time></trkpt><trkpt lat="44.38322826437644" lon="11.930213277618426"><ele>14.571428571428571</ele><time>2026-03-25T15:06:04.973Z</time></trkpt><trkpt lat="44.38317959854721" lon="11.93028721109738"><ele>14.428571428571429</ele><time>2026-03-25T15:06:10.973Z</time></trkpt><trkpt lat="44.38311040144352" lon="11.93025959650626"><ele>14.285714285714285</ele><time>2026-03-25T15:06:16.973Z</time></trkpt><trkpt lat="44.383046770101394" lon="11.930220302183132"><ele>14.142857142857142</ele><time>2026-03-25T15:06:22.973Z</time></trkpt><trkpt lat="44.38298772307049" lon="11.930162707070691"><ele>14.0</ele><time>2026-03-25T15:06:27.973Z</time></trkpt><trkpt lat="44.3829220831725" lon="11.930134422412255"><ele>14.0</ele><time>2026-03-25T15:06:32.973Z</time></trkpt><trkpt lat="44.38286121970412" lon="11.930096232608758"><ele>14.0</ele><time>2026-03-25T15:06:38.973Z</time></trkpt><trkpt lat="44.38280217142456" lon="11.93004198102338"><ele>14.0</ele><time>2026-03-25T15:06:43.972Z</time></trkpt><trkpt lat="44.38273889258669" lon="11.929992979281629"><ele>14.0</ele><time>2026-03-25T15:06:48.972Z</time></trkpt><trkpt lat="44.38268276503651" lon="11.929945138077924"><ele>14.0</ele><time>2026-03-25T15:06:52.972Z</time></trkpt><trkpt lat="44.38261748294145" lon="11.929905458886735"><ele>14.0</ele><time>2026-03-25T15:06:56.972Z</time></trkpt><trkpt lat="44.38254218899618" lon="11.92986147082898"><ele>14.0</ele><time>2026-03-25T15:07:00.972Z</time></trkpt><trkpt lat="44.38247379746006" lon="11.929796021818568"><ele>14.166666666666668</ele><time>2026-03-25T15:07:04.971Z</time></trkpt><trkpt lat="44.38240250443265" lon="11.929740121077032"><ele>14.333333333333334</ele><time>2026-03-25T15:07:08.971Z</time></trkpt><trkpt lat="44.382340480374495" lon="11.92968783731476"><ele>14.5</ele><time>2026-03-25T15:07:11.971Z</time></trkpt><trkpt lat="44.38227938428264" lon="11.929639497693538"><ele>14.666666666666668</ele><time>2026-03-25T15:07:14.971Z</time></trkpt><trkpt lat="44.38220771158008" lon="11.929592348213081"><ele>14.833333333333334</ele><time>2026-03-25T15:07:18.971Z</time></trkpt><trkpt lat="44.3821319443314" lon="11.929540837608169"><ele>15.0</ele><time>2026-03-25T15:07:22.971Z</time></trkpt><trkpt lat="44.382075390009966" lon="11.92948231055497"><ele>15.0</ele><time>2026-03-25T15:07:25.971Z</time></trkpt><trkpt lat="44.3820161418793" lon="11.92942449892453"><ele>15.0</ele><time>2026-03-25T15:07:28.971Z</time></trkpt><trkpt lat="44.38195126976143" lon="11.929370643813465"><ele>15.0</ele><time>2026-03-25T15:07:31.971Z</time></trkpt><trkpt lat="44.381894634411374" lon="11.929311812267608"><ele>15.0</ele><time>2026-03-25T15:07:34.971Z</time></trkpt><trkpt lat="44.38184078953082" lon="11.929264845845555"><ele>15.0</ele><time>2026-03-25T15:07:37.971Z</time></trkpt><trkpt lat="44.3817820978025" lon="11.929217937559534"><ele>15.0</ele><time>2026-03-25T15:07:40.971Z</time></trkpt><trkpt lat="44.381716995698476" lon="11.92915997645818"><ele>15.0</ele><time>2026-03-25T15:07:44.971Z</time></trkpt><trkpt lat="44.381654613563505" lon="11.929108713007082"><ele>15.0</ele><time>2026-03-25T15:07:48.971Z</time></trkpt><trkpt lat="44.38165224236276" lon="11.929004399285738"><ele>15.0</ele><time>2026-03-25T15:07:52.971Z</time></trkpt><trkpt lat="44.381703213371196" lon="11.928925519719245"><ele>15.0</ele><time>2026-03-25T15:07:55.971Z</time></trkpt><trkpt lat="44.381736804016796" lon="11.928850261662237"><ele>15.0</ele><time>2026-03-25T15:07:58.971Z</time></trkpt><trkpt lat="44.38179750973855" lon="11.928760108921978"><ele>15.0</ele><time>2026-03-25T15:08:02.971Z</time></trkpt><trkpt lat="44.38183973141399" lon="11.92866487993295"><ele>15.0</ele><time>2026-03-25T15:08:06.971Z</time></trkpt><trkpt lat="44.38189656341299" lon="11.928567647469434"><ele>15.0</ele><time>2026-03-25T15:08:10.972Z</time></trkpt><trkpt lat="44.38192621301272" lon="11.928474148796626"><ele>15.0</ele><time>2026-03-25T15:08:12.971Z</time></trkpt><trkpt lat="44.38197901060653" lon="11.928413704037947"><ele>15.0</ele><time>2026-03-25T15:08:16.971Z</time></trkpt><trkpt lat="44.38202817544609" lon="11.928337280822097"><ele>15.0</ele><time>2026-03-25T15:08:19.971Z</time></trkpt><trkpt lat="44.38207317275043" lon="11.928268827426162"><ele>15.0</ele><time>2026-03-25T15:08:22.971Z</time></trkpt><trkpt lat="44.3821172758078" lon="11.928196397136048"><ele>15.0</ele><time>2026-03-25T15:08:25.971Z</time></trkpt><trkpt lat="44.38214624455613" lon="11.928115656493063"><ele>15.0</ele><time>2026-03-25T15:08:28.971Z</time></trkpt><trkpt lat="44.38218597181062" lon="11.928036717124021"><ele>14.833333333333334</ele><time>2026-03-25T15:08:31.971Z</time></trkpt><trkpt lat="44.38222384501069" lon="11.927939745446906"><ele>14.666666666666668</ele><time>2026-03-25T15:08:35.971Z</time></trkpt><trkpt lat="44.382268340564096" lon="11.927857196940177"><ele>14.5</ele><time>2026-03-25T15:08:38.971Z</time></trkpt><trkpt lat="44.382327786224536" lon="11.927773174348275"><ele>14.333333333333334</ele><time>2026-03-25T15:08:42.971Z</time></trkpt><trkpt lat="44.38237041830755" lon="11.927707562195238"><ele>14.166666666666668</ele><time>2026-03-25T15:08:45.971Z</time></trkpt><trkpt lat="44.38243834243017" lon="11.927643174408198"><ele>14.0</ele><time>2026-03-25T15:08:48.971Z</time></trkpt><trkpt lat="44.382501062707775" lon="11.927562892109663"><ele>14.166666666666668</ele><time>2026-03-25T15:08:52.971Z</time></trkpt><trkpt lat="44.38257741629003" lon="11.927503339553589"><ele>14.333333333333334</ele><time>2026-03-25T15:08:56.971Z</time></trkpt><trkpt lat="44.38263673529516" lon="11.927467866120397"><ele>14.5</ele><time>2026-03-25T15:08:59.971Z</time></trkpt><trkpt lat="44.38271211870391" lon="11.927411356504923"><ele>14.666666666666668</ele><time>2026-03-25T15:09:03.971Z</time></trkpt><trkpt lat="44.38277335274675" lon="11.927349669549715"><ele>14.833333333333334</ele><time>2026-03-25T15:09:06.971Z</time></trkpt><trkpt lat="44.38283744922228" lon="11.92731989230993"><ele>15.0</ele><time>2026-03-25T15:09:09.971Z</time></trkpt><trkpt lat="44.382921065212834" lon="11.927284770361526"><ele>15.0</ele><time>2026-03-25T15:09:13.971Z</time></trkpt><trkpt lat="44.38298954630564" lon="11.9272627395042"><ele>15.0</ele><time>2026-03-25T15:09:16.971Z</time></trkpt><trkpt lat="44.383057091497996" lon="11.927267703622439"><ele>15.0</ele><time>2026-03-25T15:09:19.971Z</time></trkpt><trkpt lat="44.3831290195535" lon="11.927263694887051"><ele>15.0</ele><time>2026-03-25T15:09:22.971Z</time></trkpt><trkpt lat="44.383210269086064" lon="11.92725815114688"><ele>15.0</ele><time>2026-03-25T15:09:26.971Z</time></trkpt><trkpt lat="44.38327418465723" lon="11.927252896165703"><ele>15.0</ele><time>2026-03-25T15:09:29.971Z</time></trkpt><trkpt lat="44.38333595123296" lon="11.927232734751836"><ele>15.0</ele><time>2026-03-25T15:09:32.971Z</time></trkpt><trkpt lat="44.38341406159502" lon="11.927185596552375"><ele>14.857142857142858</ele><time>2026-03-25T15:09:36.971Z</time></trkpt><trkpt lat="44.383478427153925" lon="11.927147119578288"><ele>14.714285714285714</ele><time>2026-03-25T15:09:40.971Z</time></trkpt><trkpt lat="44.38354161970072" lon="11.92709688973923"><ele>14.571428571428571</ele><time>2026-03-25T15:09:43.971Z</time></trkpt><trkpt lat="44.38360021237195" lon="11.927051272892427"><ele>14.428571428571429</ele><time>2026-03-25T15:09:46.971Z</time></trkpt><trkpt lat="44.383659835851795" lon="11.9270133446139"><ele>14.285714285714285</ele><time>2026-03-25T15:09:49.971Z</time></trkpt><trkpt lat="44.38372497166143" lon="11.926970666659582"><ele>14.142857142857142</ele><time>2026-03-25T15:09:52.971Z</time></trkpt><trkpt lat="44.383790486596006" lon="11.9269248904036"><ele>14.0</ele><time>2026-03-25T15:09:55.971Z</time></trkpt><trkpt lat="44.38384269486871" lon="11.926859983869813"><ele>14.285714285714285</ele><time>2026-03-25T15:09:58.971Z</time></trkpt><trkpt lat="44.38389565454229" lon="11.926803304193049"><ele>14.571428571428571</ele><time>2026-03-25T15:10:01.971Z</time></trkpt><trkpt lat="44.38394721176595" lon="11.926749133771622"><ele>14.857142857142858</ele><time>2026-03-25T15:10:04.971Z</time></trkpt><trkpt lat="44.38401254996917" lon="11.926744706704996"><ele>15.142857142857142</ele><time>2026-03-25T15:10:07.971Z</time></trkpt><trkpt lat="44.384059622006085" lon="11.926823958512005"><ele>15.428571428571427</ele><time>2026-03-25T15:10:10.972Z</time></trkpt><trkpt lat="44.38408555490542" lon="11.926918295470243"><ele>15.714285714285714</ele><time>2026-03-25T15:10:13.972Z</time></trkpt><trkpt lat="44.384130784568356" lon="11.92700354278841"><ele>16.0</ele><time>2026-03-25T15:10:16.972Z</time></trkpt><trkpt lat="44.38416576994745" lon="11.927079410780683"><ele>15.999999999999998</ele><time>2026-03-25T15:10:19.972Z</time></trkpt><trkpt lat="44.38421419960298" lon="11.927181342793721"><ele>16.0</ele><time>2026-03-25T15:10:23.972Z</time></trkpt><trkpt lat="44.38426476680162" lon="11.927281507356307"><ele>16.0</ele><time>2026-03-25T15:10:27.972Z</time></trkpt><trkpt lat="44.38429839842046" lon="11.92735647554509"><ele>16.0</ele><time>2026-03-25T15:10:30.972Z</time></trkpt><trkpt lat="44.3843299944504" lon="11.927453715036744"><ele>15.999999999999998</ele><time>2026-03-25T15:10:33.972Z</time></trkpt><trkpt lat="44.38437755076563" lon="11.927546490516724"><ele>16.0</ele><time>2026-03-25T15:10:37.972Z</time></trkpt><trkpt lat="44.38440327156765" lon="11.927635225205949"><ele>16.0</ele><time>2026-03-25T15:10:40.972Z</time></trkpt><trkpt lat="44.384430054625895" lon="11.92771571631126"><ele>15.999999999999998</ele><time>2026-03-25T15:10:43.972Z</time></trkpt><trkpt lat="44.38447215113858" lon="11.927809921352315"><ele>16.0</ele><time>2026-03-25T15:10:47.972Z</time></trkpt><trkpt lat="44.38450577746986" lon="11.927892212943304"><ele>16.0</ele><time>2026-03-25T15:10:50.972Z</time></trkpt><trkpt lat="44.38453949262905" lon="11.928000651575445"><ele>15.999999999999998</ele><time>2026-03-25T15:10:54.972Z</time></trkpt><trkpt lat="44.38455622021367" lon="11.928089922196214"><ele>16.0</ele><time>2026-03-25T15:10:57.972Z</time></trkpt><trkpt lat="44.38458953256068" lon="11.928194838546883"><ele>16.0</ele><time>2026-03-25T15:11:01.972Z</time></trkpt><trkpt lat="44.38459763220181" lon="11.92828773381184"><ele>16.0</ele><time>2026-03-25T15:11:04.972Z</time></trkpt><trkpt lat="44.38462107181859" lon="11.928380667466778"><ele>15.999999999999998</ele><time>2026-03-25T15:11:07.972Z</time></trkpt><trkpt lat="44.38464383891438" lon="11.928464342850484"><ele>16.0</ele><time>2026-03-25T15:11:10.972Z</time></trkpt><trkpt lat="44.38466018640607" lon="11.928580714911137"><ele>16.0</ele><time>2026-03-25T15:11:14.972Z</time></trkpt><trkpt lat="44.38466365030749" lon="11.928679014975511"><ele>15.999999999999998</ele><time>2026-03-25T15:11:17.972Z</time></trkpt><trkpt lat="44.384666877040914" lon="11.92878285880876"><ele>16.0</ele><time>2026-03-25T15:11:21.972Z</time></trkpt><trkpt lat="44.38467262929123" lon="11.928877745426481"><ele>16.0</ele><time>2026-03-25T15:11:24.972Z</time></trkpt><trkpt lat="44.384678880765165" lon="11.928984739727092"><ele>15.857142857142856</ele><time>2026-03-25T15:11:28.972Z</time></trkpt><trkpt lat="44.38467712661607" lon="11.929077178216014"><ele>15.714285714285712</ele><time>2026-03-25T15:11:31.972Z</time></trkpt><trkpt lat="44.384669721908736" lon="11.92916708347762"><ele>15.571428571428571</ele><time>2026-03-25T15:11:34.972Z</time></trkpt><trkpt lat="44.38464429448304" lon="11.929250368393438"><ele>15.428571428571427</ele><time>2026-03-25T15:11:37.972Z</time></trkpt><trkpt lat="44.38461726691559" lon="11.929346448580274"><ele>15.285714285714285</ele><time>2026-03-25T15:11:41.972Z</time></trkpt><trkpt lat="44.38457716523712" lon="11.929442151382876"><ele>15.142857142857142</ele><time>2026-03-25T15:11:45.972Z</time></trkpt><trkpt lat="44.38454939123486" lon="11.929530092267274"><ele>15.0</ele><time>2026-03-25T15:11:48.972Z</time></trkpt><trkpt lat="44.384516695054074" lon="11.929618734430198"><ele>15.0</ele><time>2026-03-25T15:11:51.972Z</time></trkpt><trkpt lat="44.38447389518669" lon="11.929724175828921"><ele>15.0</ele><time>2026-03-25T15:11:55.972Z</time></trkpt><trkpt lat="44.38443988983156" lon="11.929807190951161"><ele>15.0</ele><time>2026-03-25T15:11:58.972Z</time></trkpt><trkpt lat="44.384400982598876" lon="11.929897078262387"><ele>15.0</ele><time>2026-03-25T15:12:02.972Z</time></trkpt><trkpt lat="44.384358821744776" lon="11.929992292069413"><ele>15.0</ele><time>2026-03-25T15:12:06.972Z</time></trkpt><trkpt lat="44.38432765034043" lon="11.93009751020809"><ele>15.0</ele><time>2026-03-25T15:12:10.972Z</time></trkpt><trkpt lat="44.38429296640446" lon="11.930173474996904"><ele>15.0</ele><time>2026-03-25T15:12:13.972Z</time></trkpt><trkpt lat="44.384251175121456" lon="11.930256248645424"><ele>15.0</ele><time>2026-03-25T15:12:17.973Z</time></trkpt><trkpt lat="44.384224724665195" lon="11.930340604655663"><ele>15.0</ele><time>2026-03-25T15:12:20.973Z</time></trkpt><trkpt lat="44.38419837988849" lon="11.930429348970101"><ele>15.0</ele><time>2026-03-25T15:12:23.973Z</time></trkpt><trkpt lat="44.38417703670188" lon="11.93054001026943"><ele>15.0</ele><time>2026-03-25T15:12:27.972Z</time></trkpt><trkpt lat="44.38413565362548" lon="11.93063104654359"><ele>15.0</ele><time>2026-03-25T15:12:30.972Z</time></trkpt><trkpt lat="44.38410340004158" lon="11.930709191273479"><ele>15.0</ele><time>2026-03-25T15:12:33.972Z</time></trkpt><trkpt lat="44.3840700957353" lon="11.930790790215772"><ele>15.0</ele><time>2026-03-25T15:12:36.972Z</time></trkpt><trkpt lat="44.384039422814006" lon="11.930900076351097"><ele>15.0</ele><time>2026-03-25T15:12:40.972Z</time></trkpt><trkpt lat="44.383994085044776" lon="11.930991108486344"><ele>15.0</ele><time>2026-03-25T15:12:45.972Z</time></trkpt><trkpt lat="44.38395999296825" lon="11.9310824670522"><ele>15.0</ele><time>2026-03-25T15:12:49.972Z</time></trkpt><trkpt lat="44.38391441623144" lon="11.931156127160504"><ele>15.0</ele><time>2026-03-25T15:12:54.972Z</time></trkpt><trkpt lat="44.38389705126264" lon="11.931253036890427"><ele>15.0</ele><time>2026-03-25T15:13:01.972Z</time></trkpt><trkpt lat="44.383856849571835" lon="11.931338298604317"><ele>15.142857142857142</ele><time>2026-03-25T15:13:06.972Z</time></trkpt><trkpt lat="44.3838039174942" lon="11.931415388456509"><ele>15.285714285714285</ele><time>2026-03-25T15:13:11.972Z</time></trkpt><trkpt lat="44.38375307223006" lon="11.931489685917269"><ele>15.428571428571427</ele><time>2026-03-25T15:13:16.972Z</time></trkpt><trkpt lat="44.38372675019599" lon="11.931585743017333"><ele>15.571428571428571</ele><time>2026-03-25T15:13:21.972Z</time></trkpt><trkpt lat="44.38371683369804" lon="11.9316898276328"><ele>15.714285714285712</ele><time>2026-03-25T15:13:26.972Z</time></trkpt><trkpt lat="44.38368644137838" lon="11.931784959762473"><ele>15.857142857142856</ele><time>2026-03-25T15:13:31.972Z</time></trkpt><trkpt lat="44.38366242603322" lon="11.931879070678155"><ele>16.0</ele><time>2026-03-25T15:13:36.972Z</time></trkpt><trkpt lat="44.38362636060033" lon="11.931968768480953"><ele>16.0</ele><time>2026-03-25T15:13:41.972Z</time></trkpt><trkpt lat="44.383574703971505" lon="11.93204754094329"><ele>15.999999999999998</ele><time>2026-03-25T15:13:46.972Z</time></trkpt><trkpt lat="44.38353332868862" lon="11.932136873445849"><ele>16.0</ele><time>2026-03-25T15:13:51.972Z</time></trkpt><trkpt lat="44.38351138381713" lon="11.932237245561309"><ele>16.0</ele><time>2026-03-25T15:13:56.972Z</time></trkpt><trkpt lat="44.38347459287105" lon="11.932331955399999"><ele>15.999999999999998</ele><time>2026-03-25T15:14:01.972Z</time></trkpt><trkpt lat="44.383528232113925" lon="11.93240024750362"><ele>16.0</ele><time>2026-03-25T15:14:07.972Z</time></trkpt><trkpt lat="44.38357136117595" lon="11.93248073743095"><ele>16.0</ele><time>2026-03-25T15:14:12.972Z</time></trkpt><trkpt lat="44.383558607118914" lon="11.932572653909622"><ele>16.0</ele><time>2026-03-25T15:14:16.972Z</time></trkpt><trkpt lat="44.3835288066996" lon="11.932655017088578"><ele>15.999999999999998</ele><time>2026-03-25T15:14:19.972Z</time></trkpt><trkpt lat="44.383483168784586" lon="11.932732935285214"><ele>16.0</ele><time>2026-03-25T15:14:22.973Z</time></trkpt><trkpt lat="44.3835351658669" lon="11.932817514477449"><ele>16.0</ele><time>2026-03-25T15:14:25.973Z</time></trkpt><trkpt lat="44.3836042216405" lon="11.932868851591683"><ele>15.999999999999998</ele><time>2026-03-25T15:14:29.973Z</time></trkpt><trkpt lat="44.383664137874014" lon="11.932926056088021"><ele>16.0</ele><time>2026-03-25T15:14:32.974Z</time></trkpt><trkpt lat="44.383722919598554" lon="11.932979823370175"><ele>16.0</ele><time>2026-03-25T15:14:35.973Z</time></trkpt><trkpt lat="44.38377433772263" lon="11.933057725734862"><ele>16.0</ele><time>2026-03-25T15:14:38.973Z</time></trkpt><trkpt lat="44.38383936375654" lon="11.933111924807989"><ele>15.999999999999998</ele><time>2026-03-25T15:14:42.973Z</time></trkpt><trkpt lat="44.3838922748789" lon="11.933176840318144"><ele>16.0</ele><time>2026-03-25T15:14:45.973Z</time></trkpt><trkpt lat="44.38394976375942" lon="11.933226798785112"><ele>16.0</ele><time>2026-03-25T15:14:48.973Z</time></trkpt><trkpt lat="44.38400924066267" lon="11.933292044530626"><ele>15.999999999999998</ele><time>2026-03-25T15:14:51.973Z</time></trkpt><trkpt lat="44.38407722830216" lon="11.933352831150673"><ele>16.0</ele><time>2026-03-25T15:14:54.973Z</time></trkpt><trkpt lat="44.38413865158591" lon="11.93339053515266"><ele>16.0</ele><time>2026-03-25T15:14:57.973Z</time></trkpt><trkpt lat="44.38420518159764" lon="11.933452779903098"><ele>16.0</ele><time>2026-03-25T15:15:01.973Z</time></trkpt><trkpt lat="44.38426691894542" lon="11.933497660053511"><ele>16.0</ele><time>2026-03-25T15:15:04.973Z</time></trkpt><trkpt lat="44.384324890841015" lon="11.93354802335969"><ele>16.0</ele><time>2026-03-25T15:15:07.973Z</time></trkpt><trkpt lat="44.38438623810807" lon="11.933588620611408"><ele>16.0</ele><time>2026-03-25T15:15:10.973Z</time></trkpt><trkpt lat="44.384450698092095" lon="11.933640802271322"><ele>16.0</ele><time>2026-03-25T15:15:13.973Z</time></trkpt><trkpt lat="44.38450826052849" lon="11.933691199392488"><ele>16.0</ele><time>2026-03-25T15:15:16.973Z</time></trkpt></trkseg></trk></gpx>